createdAt,value
2018-07-15T00:01:20.950Z,5.47
2018-07-15T00:03:49.510Z,5.73
2018-07-15T00:06:17.998Z,5.47
2018-07-15T00:08:46.496Z,6.57
2018-07-15T00:11:15.186Z,5.67
2018-07-15T00:13:43.875Z,5.33
2018-07-15T00:16:12.381Z,5.70
2018-07-15T00:18:40.845Z,6.40
2018-07-15T00:21:09.055Z,6.00
2018-07-15T00:23:37.503Z,6.53
2018-07-15T00:26:06.165Z,5.87
2018-07-15T00:28:34.630Z,6.37
2018-07-15T00:31:03.167Z,5.40
2018-07-15T00:33:31.904Z,6.10
2018-07-15T00:36:00.581Z,5.77
2018-07-15T00:38:29.343Z,5.60
2018-07-15T00:40:57.963Z,5.67
2018-07-15T00:43:26.446Z,5.70
2018-07-15T00:45:54.920Z,5.93
2018-07-15T00:48:23.776Z,6.03
2018-07-15T00:50:52.371Z,5.90
2018-07-15T00:53:20.820Z,5.43
2018-07-15T00:55:48.956Z,6.50
2018-07-15T00:58:17.388Z,6.47
2018-07-15T01:00:51.216Z,6.60
2018-07-15T01:03:19.626Z,5.17
2018-07-15T01:05:48.217Z,5.60
2018-07-15T01:08:16.803Z,6.47
2018-07-15T01:10:45.039Z,5.43
2018-07-15T01:13:13.687Z,5.80
2018-07-15T01:15:42.130Z,5.60
2018-07-15T01:18:10.690Z,6.20
2018-07-15T01:20:39.387Z,6.00
2018-07-15T01:23:08.187Z,6.30
2018-07-15T01:25:36.764Z,6.57
2018-07-15T01:28:05.963Z,5.70
2018-07-15T01:30:34.477Z,5.57
2018-07-15T01:33:02.926Z,6.10
2018-07-15T01:35:31.412Z,5.90
2018-07-15T01:38:06.626Z,5.90
2018-07-15T01:40:35.086Z,7.00
2018-07-15T01:43:03.717Z,6.60
2018-07-15T01:45:32.184Z,5.90
2018-07-15T01:48:00.679Z,6.73
2018-07-15T01:50:28.840Z,5.60
2018-07-15T01:52:57.438Z,6.00
2018-07-15T01:55:25.943Z,5.87
2018-07-15T01:57:54.149Z,6.37
2018-07-15T02:00:22.615Z,5.70
2018-07-15T02:02:51.144Z,5.50
2018-07-15T02:05:19.757Z,6.90
2018-07-15T02:07:48.672Z,5.30
2018-07-15T02:10:17.266Z,6.30
2018-07-15T02:12:45.864Z,6.17
2018-07-15T02:15:14.292Z,5.50
2018-07-15T02:17:42.767Z,6.40
2018-07-15T02:20:11.234Z,6.50
2018-07-15T02:22:40.327Z,7.10
2018-07-15T02:25:08.892Z,5.70
2018-07-15T02:27:37.369Z,7.03
2018-07-15T02:30:05.894Z,6.40
2018-07-15T02:32:34.070Z,6.60
2018-07-15T02:35:02.715Z,7.03
2018-07-15T02:37:31.137Z,6.30
2018-07-15T02:39:59.608Z,5.53
2018-07-15T02:42:27.770Z,5.63
2018-07-15T02:44:56.282Z,5.47
2018-07-15T02:47:24.721Z,7.23
2018-07-15T02:49:53.239Z,6.40
2018-07-15T02:52:21.870Z,5.80
2018-07-15T02:54:50.570Z,7.10
2018-07-15T02:57:19.063Z,5.83
2018-07-15T02:59:47.701Z,6.90
2018-07-15T03:02:16.185Z,7.07
2018-07-15T03:04:44.611Z,6.60
2018-07-15T03:07:12.765Z,6.30
2018-07-15T03:09:41.317Z,5.70
2018-07-15T03:12:09.957Z,6.30
2018-07-15T03:14:38.058Z,6.87
2018-07-15T03:17:07.060Z,6.90
2018-07-15T03:19:35.576Z,7.20
2018-07-15T03:22:04.100Z,6.20
2018-07-15T03:24:32.198Z,7.80
2018-07-15T03:27:00.690Z,7.00
2018-07-15T03:29:29.122Z,7.67
2018-07-15T03:31:57.585Z,6.33
2018-07-15T03:34:26.262Z,5.80
2018-07-15T03:36:54.914Z,6.17
2018-07-15T03:39:23.401Z,6.17
2018-07-15T03:41:51.867Z,5.30
2018-07-15T03:44:20.313Z,6.60
2018-07-15T03:46:48.901Z,6.53
2018-07-15T03:49:17.098Z,6.83
2018-07-15T03:51:45.553Z,6.53
2018-07-15T03:54:14.965Z,6.80
2018-07-15T03:56:43.473Z,6.43
2018-07-15T03:59:11.970Z,8.67
2018-07-15T04:01:40.470Z,5.40
2018-07-15T04:04:08.950Z,5.83
2018-07-15T04:06:37.337Z,6.53
2018-07-15T04:09:06.515Z,7.20
2018-07-15T04:11:35.310Z,6.67
2018-07-15T04:14:04.036Z,7.33
2018-07-15T04:16:32.609Z,7.30
2018-07-15T04:19:01.080Z,6.77
2018-07-15T04:21:29.649Z,6.07
2018-07-15T04:23:58.126Z,7.60
2018-07-15T04:26:26.563Z,6.40
2018-07-15T04:28:55.053Z,6.90
2018-07-15T04:31:23.685Z,6.63
2018-07-15T04:33:52.199Z,8.20
2018-07-15T04:36:20.826Z,6.87
2018-07-15T04:38:49.273Z,6.63
2018-07-15T04:41:17.926Z,6.77
2018-07-15T04:43:46.102Z,7.47
2018-07-15T04:46:14.550Z,7.53
2018-07-15T04:48:43.142Z,6.73
2018-07-15T04:51:11.737Z,7.93
2018-07-15T04:53:40.217Z,7.00
2018-07-15T04:56:08.988Z,8.47
2018-07-15T04:58:37.393Z,8.20
2018-07-15T05:01:05.900Z,7.40
2018-07-15T05:03:34.409Z,8.37
2018-07-15T05:06:05.054Z,9.43
2018-07-15T05:08:33.441Z,8.27
2018-07-15T05:11:01.930Z,7.83
2018-07-15T05:13:30.441Z,7.40
2018-07-15T05:15:58.565Z,7.30
2018-07-15T05:18:27.217Z,7.93
2018-07-15T05:20:55.632Z,7.97
2018-07-15T05:23:24.090Z,6.80
2018-07-15T05:25:52.589Z,8.57
2018-07-15T05:28:21.085Z,7.50
2018-07-15T05:30:49.502Z,7.27
2018-07-15T05:33:17.984Z,7.93
2018-07-15T05:35:46.543Z,7.43
2018-07-15T05:38:14.693Z,6.60
2018-07-15T05:40:43.170Z,8.07
2018-07-15T05:43:11.695Z,6.73
2018-07-15T05:45:40.131Z,7.50
2018-07-15T05:48:08.637Z,7.97
2018-07-15T05:50:37.089Z,7.07
2018-07-15T05:53:05.582Z,8.20
2018-07-15T05:55:34.119Z,7.50
2018-07-15T05:58:02.863Z,8.20
2018-07-15T06:00:31.121Z,7.27
2018-07-15T06:02:59.653Z,8.33
2018-07-15T06:05:28.326Z,8.10
2018-07-15T06:07:57.100Z,7.57
2018-07-15T06:10:25.935Z,8.17
2018-07-15T06:12:54.521Z,7.03
2018-07-15T06:15:23.149Z,7.53
2018-07-15T06:17:51.550Z,7.40
2018-07-15T06:20:19.701Z,7.67
2018-07-15T06:22:48.132Z,7.57
2018-07-15T06:25:16.653Z,8.20
2018-07-15T06:27:45.117Z,7.47
2018-07-15T06:30:13.708Z,7.23
2018-07-15T06:32:42.281Z,8.87
2018-07-15T06:35:10.793Z,8.60
2018-07-15T06:37:39.313Z,8.93
2018-07-15T06:40:08.299Z,8.80
2018-07-15T06:42:36.759Z,8.23
2018-07-15T06:45:05.268Z,8.17
2018-07-15T06:47:33.935Z,7.73
2018-07-15T06:50:02.490Z,8.33
2018-07-15T06:52:30.943Z,7.73
2018-07-15T06:54:59.451Z,8.40
2018-07-15T06:57:28.000Z,8.47
2018-07-15T06:59:56.501Z,8.67
2018-07-15T07:02:25.121Z,9.47
2018-07-15T07:04:53.596Z,9.17
2018-07-15T07:07:22.166Z,10.30
2018-07-15T07:09:50.749Z,9.70
2018-07-15T07:12:19.265Z,10.07
2018-07-15T07:14:47.925Z,8.30
2018-07-15T07:17:16.404Z,9.47
2018-07-15T07:19:44.967Z,8.50
2018-07-15T07:22:13.434Z,10.13
2018-07-15T07:24:41.867Z,8.57
2018-07-15T07:27:10.332Z,9.57
2018-07-15T07:29:39.448Z,7.97
2018-07-15T07:32:08.716Z,8.23
2018-07-15T07:34:37.210Z,7.83
2018-07-15T07:37:05.806Z,7.73
2018-07-15T07:39:33.959Z,7.17
2018-07-15T07:42:02.481Z,6.73
2018-07-15T07:44:31.230Z,6.47
2018-07-15T07:46:59.741Z,7.00
2018-07-15T07:49:28.504Z,7.93
2018-07-15T07:51:57.078Z,6.77
2018-07-15T07:54:25.686Z,7.70
2018-07-15T07:56:54.469Z,6.77
2018-07-15T07:59:22.965Z,7.20
2018-07-15T08:01:51.532Z,7.03
2018-07-15T08:04:20.254Z,5.87
2018-07-15T08:06:48.921Z,5.80
2018-07-15T08:09:17.821Z,6.70
2018-07-15T08:11:46.381Z,7.20
2018-07-15T08:14:14.746Z,5.67
2018-07-15T08:16:43.308Z,6.13
2018-07-15T08:19:11.780Z,5.90
2018-07-15T08:21:40.271Z,6.70
2018-07-15T08:24:09.569Z,6.80
2018-07-15T08:26:38.470Z,6.50
2018-07-15T08:29:06.917Z,6.43
2018-07-15T08:31:35.465Z,6.37
2018-07-15T08:34:03.953Z,6.10
2018-07-15T08:36:32.389Z,6.97
2018-07-15T08:39:00.875Z,6.73
2018-07-15T08:41:29.442Z,6.70
2018-07-15T08:43:57.917Z,7.70
2018-07-15T08:46:26.422Z,6.40
2018-07-15T08:48:55.196Z,7.20
2018-07-15T08:51:23.751Z,6.80
2018-07-15T08:53:51.862Z,5.83
2018-07-15T08:56:20.382Z,6.27
2018-07-15T08:58:49.187Z,7.33
2018-07-15T09:01:18.289Z,7.13
2018-07-15T09:03:46.790Z,6.27
2018-07-15T09:06:15.317Z,8.10
2018-07-15T09:08:43.513Z,7.07
2018-07-15T09:11:12.291Z,7.47
2018-07-15T09:13:40.792Z,7.07
2018-07-15T09:16:09.353Z,7.43
2018-07-15T09:18:37.862Z,8.30
2018-07-15T09:21:06.367Z,5.50
2018-07-15T09:23:35.268Z,5.60
2018-07-15T09:26:03.795Z,6.20
2018-07-15T09:28:32.387Z,20.43
2018-07-15T09:31:00.898Z,7.03
2018-07-15T09:33:30.225Z,5.30
2018-07-15T09:35:58.674Z,5.80
2018-07-15T09:38:27.106Z,6.10
2018-07-15T09:40:55.305Z,4.87
2018-07-15T09:43:23.941Z,5.43
2018-07-15T09:45:52.366Z,5.70
2018-07-15T09:48:20.838Z,5.63
2018-07-15T09:50:49.610Z,6.27
2018-07-15T09:53:18.078Z,5.20
2018-07-15T09:55:46.508Z,5.23
2018-07-15T09:58:14.990Z,5.20
2018-07-15T10:00:48.810Z,5.17
2018-07-15T10:03:17.281Z,4.50
2018-07-15T10:05:45.975Z,5.00
2018-07-15T10:08:14.446Z,5.13
2018-07-15T10:10:42.971Z,4.20
2018-07-15T10:13:11.444Z,4.90
2018-07-15T10:15:39.932Z,4.97
2018-07-15T10:18:08.468Z,4.97
2018-07-15T10:20:37.049Z,4.50
2018-07-15T10:23:05.811Z,5.07
2018-07-15T10:25:34.314Z,4.60
2018-07-15T10:28:02.788Z,4.80
2018-07-15T10:30:31.217Z,5.07
2018-07-15T10:32:59.713Z,5.40
2018-07-15T10:35:28.234Z,5.70
2018-07-15T10:37:57.178Z,5.00
2018-07-15T10:40:25.732Z,5.70
2018-07-15T10:42:54.248Z,4.40
2018-07-15T10:45:22.673Z,5.70
2018-07-15T10:47:51.991Z,5.73
2018-07-15T10:50:20.480Z,5.30
2018-07-15T10:52:49.028Z,4.90
2018-07-15T10:55:17.582Z,5.30
2018-07-15T10:57:46.134Z,5.63
2018-07-15T11:00:14.699Z,5.17
2018-07-15T11:02:43.210Z,4.73
2018-07-15T11:05:11.770Z,5.73
2018-07-15T11:07:40.839Z,5.53
2018-07-15T11:10:09.600Z,5.77
2018-07-15T11:12:38.257Z,5.77
2018-07-15T11:15:06.835Z,5.80
2018-07-15T11:17:35.308Z,6.23
2018-07-15T11:20:03.884Z,5.90
2018-07-15T11:22:32.500Z,5.93
2018-07-15T11:25:01.034Z,5.70
2018-07-15T11:27:29.501Z,5.70
2018-07-15T11:29:58.049Z,5.17
2018-07-15T11:32:26.696Z,5.50
2018-07-15T11:34:55.191Z,5.80
2018-07-15T11:37:23.896Z,6.20
2018-07-15T11:39:52.427Z,5.17
2018-07-15T11:42:21.150Z,7.10
2018-07-15T11:44:49.613Z,5.87
2018-07-15T11:47:18.162Z,6.73
2018-07-15T11:49:46.794Z,6.17
2018-07-15T11:52:15.319Z,5.97
2018-07-15T11:54:43.906Z,6.40
2018-07-15T11:57:12.674Z,6.40
2018-07-15T11:59:41.393Z,5.63
2018-07-15T12:02:10.142Z,5.70
2018-07-15T12:04:39.518Z,5.07
2018-07-15T12:07:08.024Z,6.30
2018-07-15T12:09:36.612Z,6.90
2018-07-15T12:12:05.134Z,6.37
2018-07-15T12:14:33.703Z,5.70
2018-07-15T12:17:01.889Z,6.20
2018-07-15T12:19:31.090Z,5.47
2018-07-15T12:21:59.787Z,6.27
2018-07-15T12:24:28.319Z,6.60
2018-07-15T12:27:03.490Z,7.67
2018-07-15T12:29:31.682Z,5.93
2018-07-15T12:32:00.577Z,6.17
2018-07-15T12:34:29.097Z,5.90
2018-07-15T12:36:58.027Z,5.77
2018-07-15T12:39:27.256Z,5.47
2018-07-15T12:41:55.929Z,6.60
2018-07-15T12:44:24.557Z,5.20
2018-07-15T12:46:53.113Z,5.63
2018-07-15T12:49:24.533Z,5.10
2018-07-15T12:51:52.679Z,5.17
2018-07-15T12:54:21.022Z,5.27
2018-07-15T12:56:49.765Z,5.47
2018-07-15T12:59:17.959Z,4.57
2018-07-15T13:01:46.706Z,4.93
2018-07-15T13:04:15.271Z,4.67
2018-07-15T13:06:43.932Z,4.40
2018-07-15T13:09:12.671Z,5.20
2018-07-15T13:11:41.185Z,4.70
2018-07-15T13:14:09.783Z,5.23
2018-07-15T13:16:38.364Z,5.57
2018-07-15T13:19:06.934Z,5.33
2018-07-15T13:21:35.472Z,5.20
2018-07-15T13:24:04.179Z,4.83
2018-07-15T13:26:32.818Z,4.30
2018-07-15T13:29:01.315Z,5.53
2018-07-15T13:31:30.153Z,5.83
2018-07-15T13:33:58.736Z,4.93
2018-07-15T13:36:27.762Z,5.20
2018-07-15T13:38:56.731Z,4.97
2018-07-15T13:41:25.399Z,5.10
2018-07-15T13:44:00.526Z,5.20
2018-07-15T13:46:28.725Z,5.20
2018-07-15T13:48:57.497Z,4.03
2018-07-15T13:51:26.011Z,5.20
2018-07-15T13:53:54.790Z,5.37
2018-07-15T13:56:22.930Z,4.10
2018-07-15T13:58:52.031Z,4.33
2018-07-15T14:01:20.591Z,5.23
2018-07-15T14:03:49.059Z,4.97
2018-07-15T14:06:17.773Z,5.17
2018-07-15T14:08:46.376Z,4.90
2018-07-15T14:11:14.870Z,5.40
2018-07-15T14:13:43.341Z,4.57
2018-07-15T14:16:12.180Z,4.23
2018-07-15T14:18:40.643Z,5.43
2018-07-15T14:21:09.163Z,5.33
2018-07-15T14:23:37.849Z,4.37
2018-07-15T14:26:06.732Z,4.43
2018-07-15T14:28:35.253Z,3.57
2018-07-15T14:31:03.827Z,4.67
2018-07-15T14:33:32.321Z,3.90
2018-07-15T14:36:00.852Z,4.80
2018-07-15T14:38:29.341Z,4.20
2018-07-15T14:40:57.859Z,4.70
2018-07-15T14:43:26.805Z,3.77
2018-07-15T14:45:55.529Z,4.67
2018-07-15T14:48:24.011Z,4.47
2018-07-15T14:50:52.583Z,4.20
2018-07-15T14:53:20.949Z,4.30
2018-07-15T14:55:49.450Z,4.17
2018-07-15T14:58:17.842Z,4.63
2018-07-15T15:00:46.316Z,5.17
2018-07-15T15:03:14.816Z,4.70
2018-07-15T15:05:43.281Z,4.30
2018-07-15T15:08:11.790Z,4.80
2018-07-15T15:10:40.533Z,5.10
2018-07-15T15:13:09.483Z,4.67
2018-07-15T15:15:38.531Z,3.80
2018-07-15T15:18:06.657Z,4.63
2018-07-15T15:20:35.246Z,4.50
2018-07-15T15:23:03.773Z,4.80
2018-07-15T15:25:32.326Z,4.40
2018-07-15T15:28:00.731Z,4.70
2018-07-15T15:30:28.887Z,5.30
2018-07-15T15:32:57.631Z,4.80
2018-07-15T15:35:26.177Z,5.10
2018-07-15T15:37:54.635Z,5.10
2018-07-15T15:40:23.649Z,4.83
2018-07-15T15:42:52.401Z,5.67
2018-07-15T15:45:21.197Z,6.17
2018-07-15T15:47:49.908Z,5.70
2018-07-15T15:50:18.625Z,5.30
2018-07-15T15:52:47.398Z,5.50
2018-07-15T15:55:15.889Z,5.50
2018-07-15T15:57:44.618Z,4.77
2018-07-15T16:00:13.221Z,5.57
2018-07-15T16:02:41.504Z,4.87
2018-07-15T16:05:09.608Z,4.53
2018-07-15T16:07:38.299Z,5.30
2018-07-15T16:10:07.164Z,4.50
2018-07-15T16:12:35.714Z,4.57
2018-07-15T16:15:04.353Z,4.97
2018-07-15T16:17:33.013Z,3.50
2018-07-15T16:20:01.542Z,4.13
2018-07-15T16:22:30.023Z,4.37
2018-07-15T16:24:58.557Z,3.93
2018-07-15T16:27:27.079Z,4.37
2018-07-15T16:29:55.690Z,4.40
2018-07-15T16:32:24.264Z,4.87
2018-07-15T16:34:52.791Z,4.53
2018-07-15T16:37:21.329Z,4.43
2018-07-15T16:39:50.052Z,4.60
2018-07-15T16:42:18.651Z,4.80
2018-07-15T16:44:47.245Z,5.20
2018-07-15T16:47:15.752Z,4.13
2018-07-15T16:49:44.397Z,4.77
2018-07-15T16:52:13.322Z,4.43
2018-07-15T16:54:41.959Z,4.53
2018-07-15T16:57:11.097Z,5.00
2018-07-15T16:59:39.857Z,5.70
2018-07-15T17:02:08.741Z,4.87
2018-07-15T17:04:37.245Z,4.80
2018-07-15T17:07:06.190Z,5.23
2018-07-15T17:09:34.755Z,4.87
2018-07-15T17:12:03.253Z,4.00
2018-07-15T17:14:31.773Z,4.20
2018-07-15T17:17:00.008Z,4.17
2018-07-15T17:19:28.697Z,3.93
2018-07-15T17:21:57.292Z,4.23
2018-07-15T17:24:26.006Z,4.00
2018-07-15T17:26:54.492Z,2.93
2018-07-15T17:29:23.270Z,3.20
2018-07-15T17:31:51.445Z,3.67
2018-07-15T17:34:20.038Z,2.07
2018-07-15T17:36:49.425Z,1.40
2018-07-15T17:39:18.021Z,1.40
2018-07-15T17:41:46.558Z,2.03
2018-07-15T17:44:15.076Z,1.67
2018-07-15T17:46:43.530Z,2.20
2018-07-15T17:49:12.063Z,2.20
2018-07-15T17:51:41.032Z,2.90
2018-07-15T17:54:09.610Z,1.77
2018-07-15T17:56:38.892Z,2.00
2018-07-15T17:59:07.403Z,1.60
2018-07-15T18:01:35.935Z,1.60
2018-07-15T18:04:04.498Z,2.40
2018-07-15T18:06:32.992Z,2.60
2018-07-15T18:09:01.562Z,2.70
2018-07-15T18:11:30.322Z,3.03
2018-07-15T18:13:58.516Z,2.50
2018-07-15T18:16:27.018Z,3.33
2018-07-15T18:18:55.752Z,2.87
2018-07-15T18:21:24.175Z,3.30
2018-07-15T18:23:52.673Z,2.80
2018-07-15T18:26:21.233Z,3.00
2018-07-15T18:28:49.703Z,3.30
2018-07-15T18:31:18.172Z,3.03
2018-07-15T18:33:46.437Z,2.90
2018-07-15T18:36:14.572Z,2.87
2018-07-15T18:38:43.300Z,2.30
2018-07-15T18:41:11.541Z,3.40
2018-07-15T18:43:40.088Z,2.60
2018-07-15T18:46:09.889Z,3.30
2018-07-15T18:48:38.738Z,3.00
2018-07-15T18:51:07.257Z,2.70
2018-07-15T18:53:35.822Z,2.63
2018-07-15T18:56:04.742Z,2.87
2018-07-15T18:58:33.346Z,2.90
2018-07-15T19:01:01.995Z,2.80
2018-07-15T19:03:30.590Z,2.50
2018-07-15T19:05:58.783Z,2.50
2018-07-15T19:08:27.513Z,2.50
2018-07-15T19:10:56.082Z,2.90
2018-07-15T19:13:24.661Z,2.40
2018-07-15T19:15:53.219Z,3.00
2018-07-15T19:18:21.756Z,4.00
2018-07-15T19:20:50.215Z,3.23
2018-07-15T19:23:18.799Z,3.27
2018-07-15T19:25:47.379Z,3.23
2018-07-15T19:28:15.900Z,3.37
2018-07-15T19:30:44.701Z,3.20
2018-07-15T19:33:13.618Z,3.20
2018-07-15T19:35:42.305Z,2.60
2018-07-15T19:38:10.940Z,3.77
2018-07-15T19:40:39.472Z,3.57
2018-07-15T19:43:08.324Z,3.03
2018-07-15T19:45:37.036Z,3.17
2018-07-15T19:48:05.891Z,3.00
2018-07-15T19:50:35.517Z,3.00
2018-07-15T19:53:04.080Z,3.20
2018-07-15T19:55:32.815Z,3.00
2018-07-15T19:58:01.446Z,3.57
2018-07-15T20:00:30.555Z,2.57
2018-07-15T20:02:58.941Z,3.73
2018-07-15T20:05:28.065Z,8.60
2018-07-15T20:07:56.889Z,3.40
2018-07-15T20:10:25.398Z,3.30
2018-07-15T20:12:53.897Z,3.07
2018-07-15T20:15:22.414Z,2.77
2018-07-15T20:17:50.951Z,2.83
2018-07-15T20:20:19.262Z,3.03
2018-07-15T20:22:47.829Z,4.03
2018-07-15T20:25:16.353Z,3.70
2018-07-15T20:27:44.956Z,5.40
2018-07-15T20:30:13.478Z,4.73
2018-07-15T20:32:42.028Z,3.97
2018-07-15T20:35:10.608Z,5.60
2018-07-15T20:37:39.125Z,8.43
2018-07-15T20:40:07.660Z,8.10
2018-07-15T20:42:36.246Z,6.67
2018-07-15T20:45:04.803Z,5.77
2018-07-15T20:47:33.339Z,6.20
2018-07-15T20:50:01.722Z,4.63
2018-07-15T20:52:30.315Z,4.70
2018-07-15T20:54:58.779Z,4.87
2018-07-15T20:57:27.000Z,5.33
2018-07-15T20:59:55.503Z,5.30
2018-07-15T21:02:24.073Z,4.17
2018-07-15T21:04:53.424Z,3.53
2018-07-15T21:07:22.008Z,3.80
2018-07-15T21:09:50.461Z,4.50
2018-07-15T21:12:25.304Z,4.47
2018-07-15T21:14:53.533Z,4.67
2018-07-15T21:17:22.002Z,4.03
2018-07-15T21:19:50.509Z,5.10
2018-07-15T21:22:19.169Z,4.00
2018-07-15T21:24:47.913Z,3.53
2018-07-15T21:27:16.368Z,4.40
2018-07-15T21:29:45.213Z,3.77
2018-07-15T21:32:13.952Z,3.30
2018-07-15T21:34:42.613Z,4.77
2018-07-15T21:37:11.567Z,3.83
2018-07-15T21:39:40.230Z,4.73
2018-07-15T21:42:08.695Z,4.50
2018-07-15T21:44:37.117Z,4.17
2018-07-15T21:47:05.604Z,4.13
2018-07-15T21:49:34.149Z,3.87
2018-07-15T21:52:02.630Z,3.60
2018-07-15T21:54:31.110Z,3.80
2018-07-15T21:56:59.631Z,4.33
2018-07-15T21:59:29.326Z,4.83
2018-07-15T22:01:58.030Z,3.57
2018-07-15T22:04:26.535Z,3.83
2018-07-15T22:07:06.125Z,4.57
2018-07-15T22:09:56.240Z,4.20
2018-07-15T22:12:24.945Z,3.50
2018-07-15T22:14:53.782Z,3.07
2018-07-15T22:17:22.008Z,3.97
2018-07-15T22:19:50.546Z,4.47
2018-07-15T22:22:18.702Z,3.77
2018-07-15T22:24:47.207Z,3.90
2018-07-15T22:27:15.670Z,4.23
2018-07-15T22:29:44.937Z,3.90
2018-07-15T22:32:13.448Z,3.40
2018-07-15T22:34:42.577Z,3.27
2018-07-15T22:37:11.205Z,3.73
2018-07-15T22:39:39.733Z,4.03
2018-07-15T22:42:08.252Z,3.97
2018-07-15T22:44:36.749Z,3.50
2018-07-15T22:47:05.603Z,3.00
2018-07-15T22:49:34.094Z,4.50
2018-07-15T22:52:02.844Z,4.80
2018-07-15T22:54:30.975Z,4.73
2018-07-15T22:56:59.544Z,5.23
2018-07-15T22:59:27.958Z,5.80
2018-07-15T23:01:56.405Z,4.40
2018-07-15T23:05:46.338Z,4.60
2018-07-15T23:08:14.840Z,4.97
2018-07-15T23:10:43.017Z,4.80
2018-07-15T23:13:12.529Z,5.07
2018-07-15T23:15:41.471Z,4.87
2018-07-15T23:18:09.941Z,5.67
2018-07-15T23:20:39.363Z,4.90
2018-07-15T23:23:08.778Z,4.33
2018-07-15T23:25:37.245Z,4.73
2018-07-15T23:28:06.555Z,5.37
2018-07-15T23:30:36.071Z,4.87
2018-07-15T23:33:04.841Z,4.60
2018-07-15T23:35:33.513Z,5.80
2018-07-15T23:38:02.018Z,4.70
2018-07-15T23:40:31.053Z,5.30
2018-07-15T23:43:00.104Z,4.60
2018-07-15T23:45:29.789Z,4.53
2018-07-15T23:47:58.278Z,5.13
2018-07-15T23:50:26.845Z,4.20
2018-07-15T23:52:55.637Z,4.67
2018-07-15T23:55:24.346Z,4.47
2018-07-15T23:57:52.992Z,5.10
